createdAt,value
2019-05-09T00:00:07.629Z,0.00
2019-05-09T00:01:07.658Z,0.00
2019-05-09T00:02:07.695Z,0.00
2019-05-09T00:03:07.718Z,0.00
2019-05-09T00:04:07.779Z,0.00
2019-05-09T00:05:07.776Z,0.00
2019-05-09T00:06:07.811Z,0.00
2019-05-09T00:07:07.840Z,0.00
2019-05-09T00:08:07.866Z,0.00
2019-05-09T00:09:07.896Z,0.00
2019-05-09T00:10:07.927Z,0.00
2019-05-09T00:11:07.955Z,0.00
2019-05-09T00:12:07.984Z,0.00
2019-05-09T00:13:08.014Z,0.00
2019-05-09T00:14:08.044Z,0.00
2019-05-09T00:15:08.072Z,0.00
2019-05-09T00:16:08.103Z,0.00
2019-05-09T00:17:08.131Z,0.00
2019-05-09T00:18:08.160Z,0.00
2019-05-09T00:19:08.393Z,0.00
2019-05-09T00:20:08.220Z,0.00
2019-05-09T00:21:08.251Z,0.00
2019-05-09T00:22:08.280Z,0.00
2019-05-09T00:23:08.309Z,0.00
2019-05-09T00:24:08.337Z,0.00
2019-05-09T00:25:08.368Z,0.00
2019-05-09T00:26:08.397Z,0.00
2019-05-09T00:27:08.426Z,0.00
2019-05-09T00:28:08.658Z,0.00
2019-05-09T00:29:08.484Z,0.00
2019-05-09T00:30:08.544Z,0.00
2019-05-09T00:31:13.525Z,0.00
2019-05-09T00:32:08.574Z,0.00
2019-05-09T00:33:08.604Z,0.00
2019-05-09T00:34:08.633Z,0.00
2019-05-09T00:35:08.661Z,0.00
2019-05-09T00:36:10.043Z,0.00
2019-05-09T00:37:08.722Z,0.00
2019-05-09T00:38:08.754Z,0.00
2019-05-09T00:39:08.778Z,0.00
2019-05-09T00:40:08.806Z,0.00
2019-05-09T00:41:08.868Z,0.00
2019-05-09T00:42:08.897Z,0.00
2019-05-09T00:43:08.894Z,0.00
2019-05-09T00:44:08.923Z,0.00
2019-05-09T00:45:08.953Z,0.00
2019-05-09T00:46:08.981Z,0.00
2019-05-09T00:47:09.012Z,0.00
2019-05-09T00:48:09.039Z,0.00
2019-05-09T00:49:09.068Z,0.00
2019-05-09T00:50:09.098Z,0.00
2019-05-09T00:51:09.127Z,0.00
2019-05-09T00:52:09.186Z,0.00
2019-05-09T00:53:09.184Z,0.00
2019-05-09T00:54:09.213Z,0.00
2019-05-09T00:55:09.243Z,0.00
2019-05-09T00:56:09.270Z,0.00
2019-05-09T00:57:09.298Z,0.00
2019-05-09T00:58:09.327Z,0.00
2019-05-09T00:59:10.166Z,0.00
2019-05-09T01:00:09.385Z,0.00
2019-05-09T01:01:09.415Z,0.00
2019-05-09T01:02:09.442Z,0.00
2019-05-09T01:03:09.503Z,0.00
2019-05-09T01:04:09.530Z,0.00
2019-05-09T01:05:09.527Z,0.00
2019-05-09T01:06:09.556Z,0.00
2019-05-09T01:07:09.586Z,0.00
2019-05-09T01:08:09.615Z,0.00
2019-05-09T01:09:09.642Z,0.00
2019-05-09T01:10:09.670Z,0.00
2019-05-09T01:11:14.685Z,0.00
2019-05-09T01:12:09.728Z,0.00
2019-05-09T01:13:09.756Z,0.00
2019-05-09T01:14:09.785Z,0.00
2019-05-09T01:15:09.813Z,0.00
2019-05-09T01:16:09.841Z,0.00
2019-05-09T01:17:09.872Z,0.00
2019-05-09T01:18:09.899Z,0.00
2019-05-09T01:19:09.926Z,0.00
2019-05-09T01:20:09.953Z,0.00
2019-05-09T01:21:09.982Z,0.00
2019-05-09T01:22:54.088Z,0.00
2019-05-09T01:23:53.931Z,0.00
2019-05-09T01:24:53.395Z,0.00
2019-05-09T01:25:53.034Z,0.00
2019-05-09T01:26:54.192Z,0.00
2019-05-09T01:27:53.889Z,0.00
2019-05-09T01:28:53.835Z,0.00
2019-05-09T01:29:53.513Z,0.00
2019-05-09T01:30:53.273Z,0.00
2019-05-09T01:31:54.115Z,0.00
2019-05-09T01:32:53.939Z,0.00
2019-05-09T01:33:53.463Z,0.00
2019-05-09T01:35:54.146Z,0.00
2019-05-09T01:36:54.063Z,0.00
2019-05-09T01:37:53.934Z,0.00
2019-05-09T01:38:55.690Z,0.00
2019-05-09T01:39:53.462Z,0.00
2019-05-09T01:40:53.391Z,0.00
2019-05-09T01:41:53.353Z,0.00
2019-05-09T01:43:53.715Z,0.00
2019-05-09T01:44:53.390Z,0.00
2019-05-09T01:45:54.010Z,0.00
2019-05-09T01:46:54.026Z,0.00
2019-05-09T01:47:53.897Z,0.00
2019-05-09T01:48:55.970Z,0.00
2019-05-09T01:49:53.861Z,0.00
2019-05-09T01:50:53.811Z,0.00
2019-05-09T01:51:53.823Z,0.00
2019-05-09T01:52:53.498Z,0.00
2019-05-09T01:53:53.492Z,0.00
2019-05-09T01:54:54.116Z,0.00
2019-05-09T01:55:53.992Z,0.00
2019-05-09T01:56:53.806Z,0.00
2019-05-09T01:57:53.931Z,0.00
2019-05-09T01:58:54.027Z,0.00
2019-05-09T01:59:53.655Z,0.00
2019-05-09T02:00:54.004Z,0.00
2019-05-09T02:01:54.220Z,0.00
2019-05-09T02:04:53.824Z,0.00
2019-05-09T02:05:53.820Z,0.00
2019-05-09T02:06:53.968Z,0.00
2019-05-09T02:07:54.290Z,0.00
2019-05-09T02:08:54.644Z,0.00
2019-05-09T02:09:54.080Z,0.00
2019-05-09T02:10:54.305Z,0.00
2019-05-09T02:11:54.657Z,0.00
2019-05-09T02:12:54.251Z,0.00
2019-05-09T02:14:54.312Z,0.00
2019-05-09T02:15:54.136Z,0.00
2019-05-09T02:18:01.379Z,0.00
2019-05-09T02:20:54.544Z,0.00
2019-05-09T02:21:54.700Z,0.00
2019-05-09T02:22:54.730Z,0.00
2019-05-09T02:23:54.354Z,0.00
2019-05-09T02:24:54.587Z,0.00
2019-05-09T02:25:55.289Z,0.00
2019-05-09T02:33:54.599Z,0.00
2019-05-09T02:36:00.824Z,0.00
2019-05-09T02:36:54.691Z,0.00
2019-05-09T02:37:54.945Z,0.00
2019-05-09T02:40:55.233Z,0.00
2019-05-09T02:43:58.385Z,0.00
2019-05-09T02:44:54.958Z,0.00
2019-05-09T02:45:54.935Z,0.00
2019-05-09T02:46:54.966Z,0.00
2019-05-09T02:47:54.992Z,0.00
2019-05-09T02:48:55.048Z,0.00
2019-05-09T02:50:55.076Z,0.00
2019-05-09T02:51:55.139Z,0.00
2019-05-09T02:53:58.314Z,0.00
2019-05-09T02:54:58.098Z,0.00
2019-05-09T02:55:58.125Z,0.00
2019-05-09T02:56:57.858Z,0.00
2019-05-09T02:57:55.306Z,0.00
2019-05-09T02:58:58.672Z,0.00
2019-05-09T02:59:58.962Z,0.00
2019-05-09T03:04:57.920Z,0.00
2019-05-09T03:05:56.131Z,0.00
2019-05-09T03:06:59.541Z,0.00
2019-05-09T03:07:57.816Z,0.00
2019-05-09T03:08:59.420Z,0.00
2019-05-09T03:11:59.021Z,0.00
2019-05-09T03:12:59.431Z,0.00
2019-05-09T03:15:58.623Z,0.00
2019-05-09T03:16:58.766Z,0.00
2019-05-09T03:21:58.466Z,0.00
2019-05-09T03:24:58.871Z,0.00
2019-05-09T03:25:58.853Z,0.00
2019-05-09T03:26:59.414Z,4.00
2019-05-09T03:27:58.684Z,4.00
2019-05-09T03:28:59.178Z,4.00
2019-05-09T03:32:00.030Z,4.00
2019-05-09T03:32:59.685Z,4.00
2019-05-09T03:33:59.542Z,8.00
2019-05-09T03:37:57.251Z,12.00
2019-05-09T03:38:57.841Z,16.00
2019-05-09T03:39:58.099Z,16.00
2019-05-09T03:41:57.476Z,24.00
2019-05-09T03:44:58.201Z,36.00
2019-05-09T03:48:58.251Z,60.00
2019-05-09T03:49:58.642Z,72.00
2019-05-09T03:50:57.728Z,76.00
2019-05-09T03:51:58.462Z,84.00
2019-05-09T03:52:57.981Z,96.00
2019-05-09T03:53:57.628Z,108.00
2019-05-09T03:54:57.935Z,116.00
2019-05-09T03:55:57.609Z,132.00
2019-05-09T03:56:57.285Z,152.00
2019-05-09T03:57:58.097Z,168.00
2019-05-09T03:58:57.845Z,184.00
2019-05-09T03:59:57.317Z,200.00
2019-05-09T04:00:58.008Z,220.00
2019-05-09T04:01:59.035Z,240.00
2019-05-09T04:02:58.053Z,260.00
2019-05-09T04:03:58.441Z,284.00
2019-05-09T04:04:57.755Z,312.00
2019-05-09T04:06:02.702Z,336.00
2019-05-09T04:06:58.125Z,372.00
2019-05-09T04:07:58.259Z,408.00
2019-05-09T04:08:58.501Z,436.00
2019-05-09T04:09:58.494Z,464.00
2019-05-09T04:10:58.593Z,484.00
2019-05-09T04:11:58.322Z,500.00
2019-05-09T04:12:59.531Z,516.00
2019-05-09T04:13:58.138Z,524.00
2019-05-09T04:14:58.406Z,536.00
2019-05-09T04:16:57.675Z,564.00
2019-05-09T04:17:57.970Z,588.00
2019-05-09T04:18:58.161Z,612.00
2019-05-09T04:19:57.863Z,648.00
2019-05-09T04:20:57.623Z,684.00
2019-05-09T04:21:57.788Z,728.00
2019-05-09T04:22:59.536Z,776.00
2019-05-09T04:23:58.431Z,828.00
2019-05-09T04:24:57.770Z,868.00
2019-05-09T04:25:58.364Z,908.00
2019-05-09T04:26:57.790Z,940.00
2019-05-09T04:27:58.454Z,972.00
2019-05-09T04:28:58.151Z,1004.00
2019-05-09T04:29:57.842Z,1024.00
2019-05-09T04:30:58.213Z,1036.00
2019-05-09T04:31:57.899Z,1044.00
2019-05-09T04:32:58.223Z,1056.00
2019-05-09T04:33:57.954Z,1072.00
2019-05-09T04:34:57.983Z,1080.00
2019-05-09T04:35:58.065Z,1112.00
2019-05-09T04:36:58.038Z,1144.00
2019-05-09T04:37:58.459Z,1164.00
2019-05-09T04:38:58.093Z,1184.00
2019-05-09T04:39:59.474Z,1212.00
2019-05-09T04:40:58.525Z,1284.00
2019-05-09T04:42:03.479Z,1368.00
2019-05-09T04:43:10.846Z,1480.00
2019-05-09T04:43:58.237Z,1588.00
2019-05-09T04:45:03.190Z,1668.00
2019-05-09T04:45:58.295Z,1760.00
2019-05-09T04:47:00.073Z,1860.00
2019-05-09T04:47:58.349Z,1956.00
2019-05-09T04:48:59.513Z,2044.00
2019-05-09T04:49:58.513Z,2124.00
2019-05-09T04:50:59.505Z,2176.00
2019-05-09T04:51:58.506Z,2216.00
2019-05-09T04:52:58.491Z,2292.00
2019-05-09T04:53:58.518Z,2380.00
2019-05-09T04:54:58.547Z,2448.00
2019-05-09T04:55:58.575Z,2520.00
2019-05-09T04:56:58.605Z,2588.00
2019-05-09T04:58:00.190Z,2684.00
2019-05-09T04:58:58.662Z,2864.00
2019-05-09T04:59:58.690Z,3056.00
2019-05-09T05:00:58.717Z,3256.00
2019-05-09T05:01:58.746Z,3356.00
2019-05-09T05:02:58.775Z,3348.00
2019-05-09T05:03:58.803Z,3276.00
2019-05-09T05:04:58.831Z,3252.00
2019-05-09T05:05:58.867Z,3336.00
2019-05-09T05:06:58.889Z,3380.00
2019-05-09T05:07:58.918Z,3440.00
2019-05-09T05:08:58.946Z,3500.00
2019-05-09T05:09:58.973Z,3404.00
2019-05-09T05:10:59.002Z,3356.00
2019-05-09T05:11:59.033Z,3392.00
2019-05-09T05:12:59.060Z,3500.00
2019-05-09T05:13:59.088Z,3564.00
2019-05-09T05:14:59.120Z,3600.00
2019-05-09T05:15:59.147Z,3704.00
2019-05-09T05:17:07.769Z,3816.00
2019-05-09T05:17:59.203Z,3992.00
2019-05-09T05:18:59.248Z,3948.00
2019-05-09T05:19:59.261Z,3948.00
2019-05-09T05:20:59.292Z,4148.00
2019-05-09T05:21:59.321Z,4316.00
2019-05-09T05:22:59.349Z,4520.00
2019-05-09T05:23:59.377Z,4812.00
2019-05-09T05:24:59.960Z,5024.00
2019-05-09T05:25:59.435Z,5388.00
2019-05-09T05:26:59.464Z,5856.00
2019-05-09T05:27:59.496Z,6360.00
2019-05-09T05:28:59.523Z,6760.00
2019-05-09T05:29:59.559Z,6792.00
2019-05-09T05:30:59.582Z,6664.00
2019-05-09T05:31:59.611Z,6952.00
2019-05-09T05:32:59.641Z,7000.00
2019-05-09T05:33:59.669Z,6532.00
2019-05-09T05:34:59.700Z,5388.00
2019-05-09T05:35:59.731Z,3956.00
2019-05-09T05:36:59.760Z,2804.00
2019-05-09T05:37:59.792Z,2048.00
2019-05-09T05:38:59.818Z,1800.00
2019-05-09T05:39:59.849Z,1996.00
2019-05-09T05:40:59.878Z,2492.00
2019-05-09T05:41:59.908Z,3140.00
2019-05-09T05:43:02.094Z,3828.00
2019-05-09T05:43:59.968Z,4308.00
2019-05-09T05:44:59.997Z,4632.00
2019-05-09T05:46:00.027Z,4700.00
2019-05-09T05:47:00.057Z,4548.00
2019-05-09T05:48:00.086Z,4408.00
2019-05-09T05:49:00.153Z,4612.00
2019-05-09T05:50:00.145Z,4888.00
2019-05-09T05:51:00.181Z,5060.00
2019-05-09T05:52:00.207Z,5336.00
2019-05-09T05:53:00.242Z,5844.00
2019-05-09T05:54:01.439Z,6404.00
2019-05-09T05:55:00.377Z,6888.00
2019-05-09T05:56:00.359Z,7016.00
2019-05-09T05:58:00.385Z,7020.00
2019-05-09T05:59:00.648Z,6856.00
2019-05-09T06:00:00.446Z,6780.00
2019-05-09T06:01:03.833Z,6820.00
2019-05-09T06:02:00.507Z,6920.00
2019-05-09T06:03:00.536Z,6984.00
2019-05-09T06:04:00.566Z,7196.00
2019-05-09T06:05:00.597Z,7604.00
2019-05-09T06:06:00.630Z,8128.00
2019-05-09T06:07:00.658Z,8712.00
2019-05-09T06:08:00.694Z,9352.00
2019-05-09T06:09:00.719Z,10072.00
2019-05-09T06:10:00.748Z,11140.00
2019-05-09T06:11:00.779Z,11172.00
2019-05-09T06:12:00.828Z,11116.00
2019-05-09T06:13:00.905Z,11200.00
2019-05-09T06:14:08.638Z,10956.00
2019-05-09T06:15:00.906Z,10872.00
2019-05-09T06:16:01.285Z,10712.00
2019-05-09T06:17:00.965Z,10436.00
2019-05-09T06:18:00.999Z,10552.00
2019-05-09T06:20:01.058Z,9860.00
2019-05-09T06:21:01.088Z,9556.00
2019-05-09T06:22:01.152Z,8924.00
2019-05-09T06:23:01.151Z,8412.00
2019-05-09T06:24:01.183Z,8004.00
2019-05-09T06:25:01.243Z,7692.00
2019-05-09T06:26:02.417Z,7488.00
2019-05-09T06:28:01.309Z,7288.00
2019-05-09T06:29:01.342Z,7256.00
2019-05-09T06:30:01.378Z,7132.00
2019-05-09T06:31:01.403Z,6692.00
2019-05-09T06:32:01.435Z,5972.00
2019-05-09T06:33:04.706Z,5100.00
2019-05-09T06:34:01.502Z,4340.00
2019-05-09T06:35:01.532Z,3688.00
2019-05-09T06:36:01.561Z,3260.00
2019-05-09T06:37:03.194Z,2912.00
2019-05-09T06:38:01.630Z,2648.00
2019-05-09T06:39:01.659Z,2436.00
2019-05-09T06:40:01.730Z,2268.00
2019-05-09T06:41:01.720Z,2132.00
2019-05-09T06:42:01.752Z,1980.00
2019-05-09T06:43:01.798Z,1816.00
2019-05-09T06:44:13.560Z,1576.00
2019-05-09T06:45:01.849Z,1384.00
2019-05-09T06:46:01.880Z,1176.00
2019-05-09T06:48:01.945Z,1020.00
2019-05-09T06:49:20.193Z,1072.00
2019-05-09T06:50:02.409Z,1140.00
2019-05-09T06:52:02.308Z,1180.00
2019-05-09T06:53:02.739Z,1236.00
2019-05-09T06:54:02.164Z,1396.00
2019-05-09T06:55:02.445Z,1516.00
2019-05-09T06:58:02.255Z,1824.00
2019-05-09T06:59:02.286Z,1968.00
2019-05-09T07:00:02.317Z,2196.00
2019-05-09T07:01:02.349Z,2440.00
2019-05-09T07:02:02.416Z,2588.00
2019-05-09T07:03:02.410Z,2736.00
2019-05-09T07:04:02.776Z,2728.00
2019-05-09T07:05:02.472Z,2640.00
2019-05-09T07:07:02.535Z,2856.00
2019-05-09T07:08:02.593Z,3344.00
2019-05-09T07:09:02.626Z,3916.00
2019-05-09T07:10:02.626Z,4540.00
2019-05-09T07:11:02.658Z,5144.00
2019-05-09T07:12:02.693Z,5940.00
2019-05-09T07:13:02.719Z,7000.00
2019-05-09T07:14:02.749Z,8828.00
2019-05-09T07:15:02.780Z,10832.00
2019-05-09T07:16:02.811Z,12768.00
2019-05-09T07:17:02.842Z,12756.00
2019-05-09T07:18:02.872Z,11832.00
2019-05-09T07:19:02.903Z,10496.00
2019-05-09T07:20:02.939Z,9252.00
2019-05-09T07:21:02.966Z,9864.00
2019-05-09T07:22:03.331Z,10960.00
2019-05-09T07:23:03.028Z,12824.00
2019-05-09T07:25:09.774Z,13912.00
2019-05-09T07:26:03.143Z,14392.00
2019-05-09T07:27:03.176Z,14692.00
2019-05-09T07:28:03.438Z,14448.00
2019-05-09T07:29:03.485Z,14120.00
2019-05-09T07:30:03.454Z,14560.00
2019-05-09T07:31:03.513Z,13924.00
2019-05-09T07:32:04.256Z,13612.00
2019-05-09T07:34:03.408Z,11936.00
2019-05-09T07:37:03.470Z,12584.00
2019-05-09T07:38:03.501Z,13216.00
2019-05-09T07:39:03.534Z,13584.00
2019-05-09T07:40:03.566Z,13768.00
2019-05-09T07:41:03.598Z,13492.00
2019-05-09T07:42:03.628Z,12812.00
2019-05-09T07:43:03.661Z,12136.00
2019-05-09T07:44:03.693Z,11584.00
2019-05-09T07:45:03.730Z,10908.00
2019-05-09T07:46:03.761Z,10324.00
2019-05-09T07:47:03.791Z,10984.00
2019-05-09T07:48:03.822Z,11544.00
2019-05-09T07:49:03.858Z,11496.00
2019-05-09T07:50:03.889Z,11600.00
2019-05-09T07:51:03.919Z,12096.00
2019-05-09T07:52:06.617Z,12892.00
2019-05-09T07:53:03.986Z,13432.00
2019-05-09T07:54:20.071Z,13884.00
2019-05-09T07:55:04.049Z,14748.00
2019-05-09T07:56:04.081Z,16260.00
2019-05-09T07:57:05.327Z,14300.00
2019-05-09T08:01:04.245Z,13016.00
2019-05-09T08:02:04.321Z,12608.00
2019-05-09T08:03:04.340Z,12256.00
2019-05-09T08:04:04.371Z,12000.00
2019-05-09T08:05:04.713Z,13212.00
2019-05-09T08:06:04.438Z,12192.00
2019-05-09T08:07:04.443Z,9976.00
2019-05-09T08:08:04.474Z,9604.00
2019-05-09T08:09:04.506Z,9180.00
2019-05-09T08:10:04.538Z,9928.00
2019-05-09T08:11:04.571Z,9584.00
2019-05-09T08:13:07.996Z,11064.00
2019-05-09T08:16:04.770Z,14780.00
2019-05-09T08:20:04.869Z,20320.00
2019-05-09T08:21:04.899Z,19968.00
2019-05-09T08:22:04.931Z,18688.00
2019-05-09T08:23:04.968Z,14216.00
2019-05-09T08:24:04.999Z,12064.00
2019-05-09T08:25:05.034Z,11748.00
2019-05-09T08:26:05.277Z,17024.00
2019-05-09T08:27:05.134Z,17216.00
2019-05-09T08:28:05.134Z,17568.00
2019-05-09T08:29:05.167Z,18304.00
2019-05-09T08:30:07.703Z,22720.00
2019-05-09T08:31:08.042Z,22912.00
2019-05-09T08:32:07.271Z,18496.00
2019-05-09T08:33:07.945Z,20928.00
2019-05-09T08:34:05.340Z,22048.00
2019-05-09T08:35:05.370Z,19744.00
2019-05-09T08:36:08.310Z,18816.00
2019-05-09T08:37:07.929Z,15420.00
2019-05-09T08:38:05.472Z,12552.00
2019-05-09T08:39:07.896Z,12052.00
2019-05-09T08:40:07.757Z,11668.00
2019-05-09T08:41:05.579Z,13680.00
2019-05-09T08:42:08.545Z,12752.00
2019-05-09T08:43:07.605Z,9476.00
2019-05-09T08:44:07.841Z,10820.00
2019-05-09T08:45:08.513Z,11292.00
2019-05-09T08:46:07.730Z,11788.00
2019-05-09T08:47:07.706Z,13120.00
2019-05-09T08:48:05.816Z,14680.00
2019-05-09T08:49:07.982Z,17280.00
2019-05-09T08:50:08.014Z,22912.00
2019-05-09T08:51:05.933Z,23168.00
2019-05-09T08:52:12.721Z,22368.00
2019-05-09T08:53:08.012Z,21792.00
2019-05-09T08:54:06.081Z,23424.00
2019-05-09T08:55:08.169Z,23552.00
2019-05-09T08:56:08.447Z,22528.00
2019-05-09T08:57:07.619Z,18496.00
2019-05-09T08:58:07.941Z,16268.00
2019-05-09T08:59:08.288Z,18496.00
2019-05-09T09:00:08.210Z,19616.00
2019-05-09T09:01:09.801Z,26400.00
2019-05-09T09:02:14.872Z,30208.00
2019-05-09T09:03:08.034Z,28096.00
2019-05-09T09:04:08.130Z,25440.00
2019-05-09T09:05:08.600Z,26432.00
2019-05-09T09:06:08.220Z,26688.00
2019-05-09T09:07:08.434Z,21216.00
2019-05-09T09:08:08.307Z,15852.00
2019-05-09T09:09:08.041Z,15056.00
2019-05-09T09:10:08.424Z,13676.00
2019-05-09T09:11:08.548Z,14800.00
2019-05-09T09:12:25.189Z,15696.00
2019-05-09T09:13:08.769Z,16284.00
2019-05-09T09:14:07.863Z,19808.00
2019-05-09T09:15:07.779Z,21696.00
2019-05-09T09:16:15.836Z,16512.00
2019-05-09T09:17:07.904Z,17248.00
2019-05-09T09:18:08.589Z,17856.00
2019-05-09T09:19:08.866Z,17120.00
2019-05-09T09:20:07.724Z,17056.00
2019-05-09T09:21:08.136Z,16736.00
2019-05-09T09:22:08.872Z,18912.00
2019-05-09T09:23:08.978Z,22528.00
2019-05-09T09:24:08.747Z,26560.00
2019-05-09T09:25:07.798Z,32128.00
2019-05-09T09:26:08.040Z,32960.00
2019-05-09T09:27:07.808Z,30944.00
2019-05-09T09:28:08.832Z,30208.00
2019-05-09T09:29:08.462Z,33056.00
2019-05-09T09:30:17.772Z,32128.00
2019-05-09T09:31:08.203Z,31200.00
2019-05-09T09:32:08.284Z,32672.00
2019-05-09T09:33:10.124Z,26496.00
2019-05-09T09:34:08.039Z,22016.00
2019-05-09T09:35:08.121Z,22720.00
2019-05-09T09:36:08.765Z,22240.00
2019-05-09T09:37:11.294Z,25728.00
2019-05-09T09:38:09.425Z,24512.00
2019-05-09T09:39:08.080Z,18176.00
2019-05-09T09:40:08.722Z,16672.00
2019-05-09T09:41:07.982Z,23008.00
2019-05-09T09:42:09.039Z,22080.00
2019-05-09T09:43:09.241Z,16024.00
2019-05-09T09:44:08.805Z,16132.00
2019-05-09T09:45:08.007Z,16832.00
2019-05-09T09:46:14.410Z,17696.00
2019-05-09T09:47:07.924Z,16512.00
2019-05-09T09:48:09.012Z,18912.00
2019-05-09T09:49:08.182Z,20160.00
2019-05-09T09:50:08.744Z,18880.00
2019-05-09T09:51:08.315Z,17024.00
2019-05-09T09:52:08.718Z,16184.00
2019-05-09T09:53:08.951Z,14428.00
2019-05-09T09:54:08.920Z,12168.00
2019-05-09T09:55:09.016Z,11216.00
2019-05-09T09:56:08.869Z,11244.00
2019-05-09T09:57:09.674Z,11472.00
2019-05-09T09:58:08.476Z,11208.00
2019-05-09T09:59:08.403Z,10364.00
2019-05-09T10:00:08.388Z,10040.00
2019-05-09T10:01:09.158Z,9472.00
2019-05-09T10:02:10.319Z,8696.00
2019-05-09T10:03:08.497Z,8064.00
2019-05-09T10:04:19.530Z,7644.00
2019-05-09T10:05:08.564Z,7468.00
2019-05-09T10:06:08.633Z,7464.00
2019-05-09T10:07:09.044Z,7448.00
2019-05-09T10:08:13.646Z,7640.00
2019-05-09T10:09:09.363Z,8044.00
2019-05-09T10:10:08.743Z,8432.00
2019-05-09T10:11:08.774Z,8912.00
2019-05-09T10:12:09.132Z,9100.00
2019-05-09T10:13:10.841Z,9056.00
2019-05-09T10:14:08.883Z,8648.00
2019-05-09T10:15:08.911Z,8356.00
2019-05-09T10:16:24.589Z,7764.00
2019-05-09T10:17:10.333Z,7456.00
2019-05-09T10:18:09.017Z,7504.00
2019-05-09T10:19:09.048Z,7604.00
2019-05-09T10:20:09.108Z,7304.00
2019-05-09T10:21:09.116Z,6892.00
2019-05-09T10:22:09.150Z,6820.00
2019-05-09T10:23:17.638Z,6056.00
2019-05-09T10:24:09.218Z,5868.00
2019-05-09T10:25:09.252Z,6260.00
2019-05-09T10:26:09.286Z,6208.00
2019-05-09T10:27:09.339Z,6872.00
2019-05-09T10:28:09.353Z,7000.00
2019-05-09T10:29:09.387Z,6940.00
2019-05-09T10:30:09.421Z,7136.00
2019-05-09T10:31:09.455Z,7344.00
2019-05-09T10:32:09.488Z,7612.00
2019-05-09T10:33:09.521Z,8008.00
2019-05-09T10:34:11.178Z,8448.00
2019-05-09T10:35:09.587Z,8628.00
2019-05-09T10:36:09.622Z,8292.00
2019-05-09T10:37:09.654Z,8024.00
2019-05-09T10:38:09.689Z,7292.00
2019-05-09T10:39:09.720Z,6908.00
2019-05-09T10:40:09.755Z,6528.00
2019-05-09T10:41:11.332Z,6248.00
2019-05-09T10:42:09.820Z,5812.00
2019-05-09T10:43:09.853Z,5708.00
2019-05-09T10:44:09.887Z,6136.00
2019-05-09T10:45:09.921Z,6700.00
2019-05-09T10:46:09.953Z,6968.00
2019-05-09T10:47:10.038Z,7468.00
2019-05-09T10:48:10.065Z,7504.00
2019-05-09T10:49:10.052Z,7588.00
2019-05-09T10:50:10.085Z,8060.00
2019-05-09T10:51:10.774Z,7912.00
2019-05-09T10:52:11.190Z,8140.00
2019-05-09T10:53:10.185Z,8140.00
2019-05-09T10:54:10.217Z,9568.00
2019-05-09T10:55:10.255Z,11152.00
2019-05-09T10:56:10.333Z,12652.00
2019-05-09T10:57:10.366Z,15340.00
2019-05-09T10:58:10.348Z,19072.00
2019-05-09T10:59:10.382Z,21568.00
2019-05-09T11:00:10.439Z,20352.00
2019-05-09T11:01:10.450Z,18016.00
2019-05-09T11:03:10.537Z,19968.00
2019-05-09T11:04:10.570Z,22400.00
2019-05-09T11:05:10.808Z,22592.00
2019-05-09T11:06:10.614Z,24064.00
2019-05-09T11:07:10.665Z,28544.00
2019-05-09T11:08:10.681Z,29088.00
2019-05-09T11:09:10.720Z,25056.00
2019-05-09T11:10:24.519Z,22016.00
2019-05-09T11:11:10.789Z,19136.00
2019-05-09T11:12:10.818Z,20544.00
2019-05-09T11:13:10.851Z,19136.00
2019-05-09T11:14:10.886Z,20352.00
2019-05-09T11:15:10.919Z,30592.00
2019-05-09T11:16:10.955Z,36736.00
2019-05-09T11:17:18.165Z,27232.00
2019-05-09T11:18:11.023Z,23552.00
2019-05-09T11:19:11.059Z,22624.00
2019-05-09T11:20:11.105Z,19328.00
2019-05-09T11:21:11.129Z,18432.00
2019-05-09T11:22:11.162Z,17696.00
2019-05-09T11:23:11.198Z,17088.00
2019-05-09T11:24:11.238Z,17248.00
2019-05-09T11:25:11.268Z,17440.00
2019-05-09T11:26:11.303Z,18432.00
2019-05-09T11:27:11.441Z,18080.00
2019-05-09T11:28:14.842Z,17856.00
2019-05-09T11:29:11.410Z,16800.00
2019-05-09T11:30:11.444Z,18976.00
2019-05-09T11:31:11.756Z,19872.00
2019-05-09T11:32:11.522Z,22592.00
2019-05-09T11:33:11.551Z,27648.00
2019-05-09T11:34:11.596Z,31072.00
2019-05-09T11:35:11.627Z,33856.00
2019-05-09T11:36:12.048Z,35072.00
2019-05-09T11:37:11.691Z,35328.00
2019-05-09T11:38:11.845Z,38848.00
2019-05-09T11:39:11.760Z,47232.00
2019-05-09T11:40:11.797Z,41504.00
2019-05-09T11:41:11.834Z,39872.00
2019-05-09T11:42:11.868Z,95840.00
2019-05-09T11:43:11.905Z,45984.00
2019-05-09T11:44:11.941Z,22240.00
2019-05-09T11:45:11.980Z,14808.00
2019-05-09T11:46:12.013Z,14572.00
2019-05-09T11:47:28.470Z,15988.00
2019-05-09T11:48:12.086Z,17568.00
2019-05-09T11:49:12.125Z,18048.00
2019-05-09T11:50:12.160Z,18752.00
2019-05-09T11:51:12.197Z,16608.00
2019-05-09T11:52:12.236Z,16512.00
2019-05-09T11:53:12.270Z,19776.00
2019-05-09T11:54:12.307Z,21600.00
2019-05-09T11:55:28.448Z,21248.00
2019-05-09T11:56:12.380Z,17056.00
2019-05-09T11:57:12.417Z,12624.00
2019-05-09T11:58:12.452Z,11744.00
2019-05-09T11:59:12.489Z,12384.00
2019-05-09T12:00:12.527Z,14212.00
2019-05-09T12:01:12.566Z,15484.00
2019-05-09T12:02:12.598Z,17216.00
2019-05-09T12:03:12.633Z,16256.00
2019-05-09T12:04:12.669Z,13944.00
2019-05-09T12:05:12.708Z,13076.00
2019-05-09T12:06:15.881Z,14136.00
2019-05-09T12:07:12.790Z,16736.00
2019-05-09T12:08:12.810Z,19328.00
2019-05-09T12:09:14.873Z,22080.00
2019-05-09T12:10:12.887Z,20640.00
2019-05-09T12:11:12.919Z,19136.00
2019-05-09T12:12:12.957Z,19232.00
2019-05-09T12:13:12.998Z,15320.00
2019-05-09T12:14:13.044Z,12576.00
2019-05-09T12:15:13.063Z,11708.00
2019-05-09T12:16:13.098Z,10916.00
2019-05-09T12:17:13.135Z,10284.00
2019-05-09T12:18:13.171Z,10012.00
2019-05-09T12:19:13.206Z,9552.00
2019-05-09T12:20:13.757Z,8068.00
2019-05-09T12:21:13.279Z,7608.00
2019-05-09T12:22:13.344Z,8340.00
2019-05-09T12:23:13.344Z,7768.00
2019-05-09T12:24:13.380Z,7100.00
2019-05-09T12:25:13.419Z,6540.00
2019-05-09T12:26:13.449Z,5176.00
2019-05-09T12:27:13.484Z,5480.00
2019-05-09T12:28:13.520Z,5944.00
2019-05-09T12:29:13.555Z,5520.00
2019-05-09T12:30:13.587Z,4688.00
2019-05-09T12:31:13.623Z,4320.00
2019-05-09T12:32:13.659Z,4076.00
2019-05-09T12:33:13.716Z,4072.00
2019-05-09T12:34:14.541Z,4500.00
2019-05-09T12:35:13.760Z,5000.00
2019-05-09T12:36:13.794Z,4668.00
2019-05-09T12:37:13.830Z,4712.00
2019-05-09T12:38:13.868Z,5452.00
2019-05-09T12:39:13.896Z,6448.00
2019-05-09T12:40:13.932Z,6396.00
2019-05-09T12:41:13.965Z,6580.00
2019-05-09T12:42:14.003Z,7052.00
2019-05-09T12:43:14.032Z,7252.00
2019-05-09T12:44:14.072Z,7212.00
2019-05-09T12:45:14.099Z,7820.00
2019-05-09T12:46:14.133Z,7784.00
2019-05-09T12:47:14.186Z,7960.00
2019-05-09T12:48:15.827Z,7400.00
2019-05-09T12:49:14.233Z,7808.00
2019-05-09T12:51:14.300Z,7456.00
2019-05-09T12:52:14.335Z,7516.00
2019-05-09T12:53:14.369Z,8616.00
2019-05-09T12:54:14.401Z,9856.00
2019-05-09T12:55:14.436Z,9924.00
2019-05-09T12:56:14.468Z,8812.00
2019-05-09T12:57:14.506Z,7932.00
2019-05-09T12:58:14.536Z,8976.00
2019-05-09T12:59:14.568Z,11020.00
2019-05-09T13:00:14.604Z,10432.00
2019-05-09T13:01:14.636Z,9980.00
2019-05-09T13:02:14.669Z,9552.00
2019-05-09T13:03:14.701Z,8760.00
2019-05-09T13:04:14.736Z,8712.00
2019-05-09T13:05:14.769Z,7256.00
2019-05-09T13:06:14.824Z,6744.00
2019-05-09T13:07:14.835Z,7544.00
2019-05-09T13:08:14.867Z,6784.00
2019-05-09T13:09:17.613Z,6312.00
2019-05-09T13:10:14.935Z,6312.00
2019-05-09T13:11:14.970Z,6388.00
2019-05-09T13:12:17.871Z,6288.00
2019-05-09T13:13:15.044Z,5608.00
2019-05-09T13:14:15.083Z,5140.00
2019-05-09T13:15:15.125Z,4820.00
2019-05-09T13:16:17.525Z,5444.00
2019-05-09T13:17:15.174Z,6240.00
2019-05-09T13:18:25.002Z,6320.00
2019-05-09T13:19:15.257Z,6040.00
2019-05-09T13:20:17.683Z,6368.00
2019-05-09T13:21:15.300Z,5464.00
2019-05-09T13:23:17.754Z,4824.00
2019-05-09T13:24:19.243Z,4540.00
2019-05-09T13:25:15.461Z,3856.00
2019-05-09T13:26:15.465Z,3784.00
2019-05-09T13:27:15.498Z,4704.00
2019-05-09T13:28:17.490Z,5508.00
2019-05-09T13:29:15.567Z,6312.00